Tzoanna Vi — SYHY — position and weather

sailwx.info

Track history (hours):
 
Tides and Currents Weather Stations Pressure Air Temp Water Temp Dewpoint Dewpoint Depression Visibility Wind Speed Wind Dir Waves Ship Positions

Tzoanna Vi

Last reported at 2017-Nov-15 15:34 UTC. Time now 2017-Nov-18 14:20 UTC.
Position N 37°12' E 025°49'.

Length 84 m; draft 5.7 m.

Type: Cargo ship. MMSI: 237991700.

Date/timePositionNaut miles runAvg speedWind from/ knotsBaromVisibWave heightAir tempDewpointWater temp
2017-Nov-15 15:34N 37°12' E 025°49'0 7.3
2017-Nov-15 15:31N 37°12' E 025°49'4 7.5
2017-Nov-15 15:00N 37°12' E 025°44'4 7.6
2017-Nov-15 14:31N 37°12' E 025°39'5 7.6
2017-Nov-15 13:52N 37°13' E 025°33'3 7.1
2017-Nov-15 13:30N 37°13' E 025°30'4 7.5
2017-Nov-15 13:00N 37°13' E 025°25'4 8.1
2017-Nov-15 12:31N 37°13' E 025°20'4 8.2
2017-Nov-15 12:00N 37°13' E 025°15'4 7.7
2017-Nov-15 11:30N 37°13' E 025°10'4 7.7
2017-Nov-15 11:00N 37°13' E 025°06'4 7.8
2017-Nov-15 10:31N 37°13' E 025°01'4 7.8
2017-Nov-15 10:00N 37°13' E 024°56'4 7.5
2017-Nov-15 09:31N 37°13' E 024°51'48 6.7
2017-Nov-15 02:21N 37°31' E 023°55'2 6.9
2017-Nov-15 02:01N 37°32' E 023°53'3 6.8
2017-Nov-15 01:31N 37°35' E 023°50'3 6.6
2017-Nov-15 01:00N 37°37' E 023°46'3 6.7
2017-Nov-15 00:31N 37°39' E 023°43'3 6.8
2017-Nov-15 00:01N 37°42' E 023°41'3 6.8
2017-Nov-14 23:30N 37°45' E 023°39'3 6.8
2017-Nov-14 23:01N 37°48' E 023°37'3 6.5
2017-Nov-14 22:31N 37°49' E 023°33'4 7.1
2017-Nov-14 22:00N 37°50' E 023°29'4 7.2
2017-Nov-14 21:31N 37°51' E 023°24'4 7.4
2017-Nov-14 21:01N 37°52' E 023°20'4 7.3
2017-Nov-14 20:31N 37°52' E 023°15'4 7.5
2017-Nov-14 20:01N 37°53' E 023°11'4 7.5
2017-Nov-14 19:30N 37°54' E 023°06'4 7.4
2017-Nov-14 19:01N 37°55' E 023°02'3 3.0
2017-Nov-14 17:52N 37°57' E 022°58'2 4.9
2017-Nov-14 17:31N 37°58' E 022°56'3 7.0
2017-Nov-14 17:00N 37°60' E 022°53'3 6.4
2017-Nov-14 16:30N 38°02' E 022°50'9 7.9
2017-Nov-14 15:25N 38°09' E 022°57'3 6.6
2017-Nov-14 15:00N 38°11' E 022°58'1 0.1
2017-Nov-14 05:21N 38°12' E 022°58'3 7.6
2017-Nov-14 04:59N 38°09' E 022°58'5 8.9
2017-Nov-14 04:27N 38°06' E 022°54'3 7.7
2017-Nov-14 04:00N 38°03' E 022°51'2 4.7
2017-Nov-14 03:30N 38°01' E 022°51'3 6.4
2017-Nov-14 03:01N 37°60' E 022°54'3 6.2
2017-Nov-14 02:31N 37°58' E 022°58'0 0.0
2017-Nov-14 02:00N 37°58' E 022°58'0 0.1
2017-Nov-14 01:31N 37°58' E 022°58'0 0.0
2017-Nov-14 01:01N 37°58' E 022°58'0 0.0
2017-Nov-14 00:31N 37°58' E 022°58'0 0.0
2017-Nov-14 00:01N 37°58' E 022°58'0 0.0
2017-Nov-13 23:31N 37°58' E 022°58'0 0.1
2017-Nov-13 23:01N 37°58' E 022°58'0 0.0
2017-Nov-13 22:31N 37°58' E 022°58'0 0.0
2017-Nov-13 22:01N 37°58' E 022°58'27 1.4
2017-Nov-13 02:01N 38°03' E 023°32'0 0.0
2017-Nov-13 01:31N 38°03' E 023°32'0 0.0
2017-Nov-13 01:01N 38°03' E 023°32'0 0.0
2017-Nov-13 00:31N 38°03' E 023°32'0 0.0
2017-Nov-13 00:01N 38°03' E 023°32'0 0.0
2017-Nov-12 23:31N 38°03' E 023°32'0 0.0
2017-Nov-12 23:01N 38°03' E 023°32'0 0.0
2017-Nov-12 22:31N 38°03' E 023°32'0 0.0
2017-Nov-12 22:01N 38°03' E 023°32'0 0.0
2017-Nov-12 21:31N 38°03' E 023°32'0 0.0
2017-Nov-12 21:01N 38°03' E 023°32'0 0.0
2017-Nov-12 20:30N 38°03' E 023°32'0 0.0
2017-Nov-12 20:01N 38°03' E 023°32'0 0.0
2017-Nov-12 19:31N 38°03' E 023°32'0 0.0
2017-Nov-12 19:00N 38°03' E 023°32'0 0.0
2017-Nov-12 18:31N 38°03' E 023°32'0 0.0
2017-Nov-12 18:01N 38°03' E 023°32'0 0.0
2017-Nov-12 17:30N 38°03' E 023°32'0 0.0
2017-Nov-12 17:00N 38°03' E 023°32'0 0.0
2017-Nov-12 16:31N 38°03' E 023°32'0 0.0
2017-Nov-12 16:01N 38°03' E 023°32'0 0.0
2017-Nov-12 15:30N 38°03' E 023°32'0 0.0
2017-Nov-12 15:01N 38°03' E 023°32'0 0.0
2017-Nov-12 14:31N 38°03' E 023°32'0 0.0
2017-Nov-12 14:01N 38°03' E 023°32'0 0.0
2017-Nov-12 13:31N 38°03' E 023°32'0 0.0
2017-Nov-12 13:01N 38°03' E 023°32'0 0.0
2017-Nov-12 12:31N 38°03' E 023°32'0 0.0
2017-Nov-12 12:00N 38°03' E 023°32'0 0.0
2017-Nov-12 11:31N 38°03' E 023°32'0 0.0
2017-Nov-12 11:00N 38°03' E 023°32'0 0.0
2017-Nov-12 10:31N 38°03' E 023°32'0 0.0
2017-Nov-12 10:00N 38°03' E 023°32'0 0.0
2017-Nov-12 09:31N 38°03' E 023°32'0 0.0
2017-Nov-12 09:01N 38°03' E 023°32'0 0.0
2017-Nov-12 08:30N 38°03' E 023°32'0 0.0
2017-Nov-12 08:01N 38°03' E 023°32'0 0.0
2017-Nov-12 07:31N 38°03' E 023°32'0 0.0
2017-Nov-12 07:00N 38°03' E 023°32'0 0.0
2017-Nov-12 06:30N 38°03' E 023°32'0 0.0
2017-Nov-12 06:00N 38°03' E 023°32'0 0.0
2017-Nov-12 05:31N 38°03' E 023°32'0 0.0
2017-Nov-12 05:01N 38°03' E 023°32'0 0.0
2017-Nov-12 04:31N 38°03' E 023°32'0 0.0
2017-Nov-12 04:01N 38°03' E 023°32'0 0.0
2017-Nov-12 03:30N 38°03' E 023°32'0 0.0
2017-Nov-12 03:00N 38°03' E 023°32'0 0.0
2017-Nov-12 02:31N 38°03' E 023°32'0 0.0
2017-Nov-12 02:01N 38°03' E 023°32'0 0.0
2017-Nov-12 01:30N 38°03' E 023°32'0 0.0
2017-Nov-12 01:01N 38°03' E 023°32'0 0.0
2017-Nov-12 00:30N 38°03' E 023°32'0 0.0
2017-Nov-12 00:01N 38°03' E 023°32'0 0.0
2017-Nov-11 23:31N 38°03' E 023°32'0 0.1
2017-Nov-11 23:01N 38°03' E 023°32'2 3.7
2017-Nov-11 22:31N 38°01' E 023°30'4 7.8
2017-Nov-11 22:00N 37°60' E 023°26'2 4.9
2017-Nov-11 21:31N 37°57' E 023°24'4 7.3
2017-Nov-11 21:00N 37°54' E 023°22'3 7.0
2017-Nov-11 20:31N 37°52' E 023°26'4 7.8
2017-Nov-11 20:00N 37°50' E 023°30'4 7.5
2017-Nov-11 19:31N 37°49' E 023°35'4 7.3
2017-Nov-11 19:01N 37°48' E 023°39'4 7.2
2017-Nov-11 18:31N 37°45' E 023°42'4 7.9
2017-Nov-11 18:00N 37°42' E 023°45'4 7.2
2017-Nov-11 17:30N 37°40' E 023°48'12 7.3
2017-Nov-11 15:47N 37°38' E 024°04'2 7.2
2017-Nov-11 15:27N 37°38' E 024°07'9 7.3
2017-Nov-11 14:15N 37°44' E 024°16'  
Track history (hours):
 
Tides and Currents Weather Stations Pressure Air Temp Water Temp Dewpoint Dewpoint Depression Visibility Wind Speed Wind Dir Waves Ship Positions

Tzoanna Vi

Last reported at 2017-Nov-15 15:34 UTC. Time now 2017-Nov-18 14:20 UTC.
Position N 37°12' E 025°49'.

Length 84 m; draft 5.7 m.

Type: Cargo ship. MMSI: 237991700.

Date/timePositionNaut miles runAvg speedWind from/ knotsBaromVisibWave heightAir tempDewpointWater temp
2017-Nov-15 15:34N 37°12' E 025°49'0 7.3
2017-Nov-15 15:31N 37°12' E 025°49'4 7.5
2017-Nov-15 15:00N 37°12' E 025°44'4 7.6
2017-Nov-15 14:31N 37°12' E 025°39'5 7.6
2017-Nov-15 13:52N 37°13' E 025°33'3 7.1
2017-Nov-15 13:30N 37°13' E 025°30'4 7.5
2017-Nov-15 13:00N 37°13' E 025°25'4 8.1
2017-Nov-15 12:31N 37°13' E 025°20'4 8.2
2017-Nov-15 12:00N 37°13' E 025°15'4 7.7
2017-Nov-15 11:30N 37°13' E 025°10'4 7.7
2017-Nov-15 11:00N 37°13' E 025°06'4 7.8
2017-Nov-15 10:31N 37°13' E 025°01'4 7.8
2017-Nov-15 10:00N 37°13' E 024°56'4 7.5
2017-Nov-15 09:31N 37°13' E 024°51'48 6.7
2017-Nov-15 02:21N 37°31' E 023°55'2 6.9
2017-Nov-15 02:01N 37°32' E 023°53'3 6.8
2017-Nov-15 01:31N 37°35' E 023°50'3 6.6
2017-Nov-15 01:00N 37°37' E 023°46'3 6.7
2017-Nov-15 00:31N 37°39' E 023°43'3 6.8
2017-Nov-15 00:01N 37°42' E 023°41'3 6.8
2017-Nov-14 23:30N 37°45' E 023°39'3 6.8
2017-Nov-14 23:01N 37°48' E 023°37'3 6.5
2017-Nov-14 22:31N 37°49' E 023°33'4 7.1
2017-Nov-14 22:00N 37°50' E 023°29'4 7.2
2017-Nov-14 21:31N 37°51' E 023°24'4 7.4
2017-Nov-14 21:01N 37°52' E 023°20'4 7.3
2017-Nov-14 20:31N 37°52' E 023°15'4 7.5
2017-Nov-14 20:01N 37°53' E 023°11'4 7.5
2017-Nov-14 19:30N 37°54' E 023°06'4 7.4
2017-Nov-14 19:01N 37°55' E 023°02'3 3.0
2017-Nov-14 17:52N 37°57' E 022°58'2 4.9
2017-Nov-14 17:31N 37°58' E 022°56'3 7.0
2017-Nov-14 17:00N 37°60' E 022°53'3 6.4
2017-Nov-14 16:30N 38°02' E 022°50'9 7.9
2017-Nov-14 15:25N 38°09' E 022°57'3 6.6
2017-Nov-14 15:00N 38°11' E 022°58'1 0.1
2017-Nov-14 05:21N 38°12' E 022°58'3 7.6
2017-Nov-14 04:59N 38°09' E 022°58'5 8.9
2017-Nov-14 04:27N 38°06' E 022°54'3 7.7
2017-Nov-14 04:00N 38°03' E 022°51'2 4.7
2017-Nov-14 03:30N 38°01' E 022°51'3 6.4
2017-Nov-14 03:01N 37°60' E 022°54'3 6.2
2017-Nov-14 02:31N 37°58' E 022°58'0 0.0
2017-Nov-14 02:00N 37°58' E 022°58'0 0.1
2017-Nov-14 01:31N 37°58' E 022°58'0 0.0
2017-Nov-14 01:01N 37°58' E 022°58'0 0.0
2017-Nov-14 00:31N 37°58' E 022°58'0 0.0
2017-Nov-14 00:01N 37°58' E 022°58'0 0.0
2017-Nov-13 23:31N 37°58' E 022°58'0 0.1
2017-Nov-13 23:01N 37°58' E 022°58'0 0.0
2017-Nov-13 22:31N 37°58' E 022°58'0 0.0
2017-Nov-13 22:01N 37°58' E 022°58'27 1.4
2017-Nov-13 02:01N 38°03' E 023°32'0 0.0
2017-Nov-13 01:31N 38°03' E 023°32'0 0.0
2017-Nov-13 01:01N 38°03' E 023°32'0 0.0
2017-Nov-13 00:31N 38°03' E 023°32'0 0.0
2017-Nov-13 00:01N 38°03' E 023°32'0 0.0
2017-Nov-12 23:31N 38°03' E 023°32'0 0.0
2017-Nov-12 23:01N 38°03' E 023°32'0 0.0
2017-Nov-12 22:31N 38°03' E 023°32'0 0.0
2017-Nov-12 22:01N 38°03' E 023°32'0 0.0
2017-Nov-12 21:31N 38°03' E 023°32'0 0.0
2017-Nov-12 21:01N 38°03' E 023°32'0 0.0
2017-Nov-12 20:30N 38°03' E 023°32'0 0.0
2017-Nov-12 20:01N 38°03' E 023°32'0 0.0
2017-Nov-12 19:31N 38°03' E 023°32'0 0.0
2017-Nov-12 19:00N 38°03' E 023°32'0 0.0
2017-Nov-12 18:31N 38°03' E 023°32'0 0.0
2017-Nov-12 18:01N 38°03' E 023°32'0 0.0
2017-Nov-12 17:30N 38°03' E 023°32'0 0.0
2017-Nov-12 17:00N 38°03' E 023°32'0 0.0
2017-Nov-12 16:31N 38°03' E 023°32'0 0.0
2017-Nov-12 16:01N 38°03' E 023°32'0 0.0
2017-Nov-12 15:30N 38°03' E 023°32'0 0.0
2017-Nov-12 15:01N 38°03' E 023°32'0 0.0
2017-Nov-12 14:31N 38°03' E 023°32'0 0.0
2017-Nov-12 14:01N 38°03' E 023°32'0 0.0
2017-Nov-12 13:31N 38°03' E 023°32'0 0.0
2017-Nov-12 13:01N 38°03' E 023°32'0 0.0
2017-Nov-12 12:31N 38°03' E 023°32'0 0.0
2017-Nov-12 12:00N 38°03' E 023°32'0 0.0
2017-Nov-12 11:31N 38°03' E 023°32'0 0.0
2017-Nov-12 11:00N 38°03' E 023°32'0 0.0
2017-Nov-12 10:31N 38°03' E 023°32'0 0.0
2017-Nov-12 10:00N 38°03' E 023°32'0 0.0
2017-Nov-12 09:31N 38°03' E 023°32'0 0.0
2017-Nov-12 09:01N 38°03' E 023°32'0 0.0
2017-Nov-12 08:30N 38°03' E 023°32'0 0.0
2017-Nov-12 08:01N 38°03' E 023°32'0 0.0
2017-Nov-12 07:31N 38°03' E 023°32'0 0.0
2017-Nov-12 07:00N 38°03' E 023°32'0 0.0
2017-Nov-12 06:30N 38°03' E 023°32'0 0.0
2017-Nov-12 06:00N 38°03' E 023°32'0 0.0
2017-Nov-12 05:31N 38°03' E 023°32'0 0.0
2017-Nov-12 05:01N 38°03' E 023°32'0 0.0
2017-Nov-12 04:31N 38°03' E 023°32'0 0.0
2017-Nov-12 04:01N 38°03' E 023°32'0 0.0
2017-Nov-12 03:30N 38°03' E 023°32'0 0.0
2017-Nov-12 03:00N 38°03' E 023°32'0 0.0
2017-Nov-12 02:31N 38°03' E 023°32'0 0.0
2017-Nov-12 02:01N 38°03' E 023°32'0 0.0
2017-Nov-12 01:30N 38°03' E 023°32'0 0.0
2017-Nov-12 01:01N 38°03' E 023°32'0 0.0
2017-Nov-12 00:30N 38°03' E 023°32'0 0.0
2017-Nov-12 00:01N 38°03' E 023°32'0 0.0
2017-Nov-11 23:31N 38°03' E 023°32'0 0.1
2017-Nov-11 23:01N 38°03' E 023°32'2 3.7
2017-Nov-11 22:31N 38°01' E 023°30'4 7.8
2017-Nov-11 22:00N 37°60' E 023°26'2 4.9
2017-Nov-11 21:31N 37°57' E 023°24'4 7.3
2017-Nov-11 21:00N 37°54' E 023°22'3 7.0
2017-Nov-11 20:31N 37°52' E 023°26'4 7.8
2017-Nov-11 20:00N 37°50' E 023°30'4 7.5
2017-Nov-11 19:31N 37°49' E 023°35'4 7.3
2017-Nov-11 19:01N 37°48' E 023°39'4 7.2
2017-Nov-11 18:31N 37°45' E 023°42'4 7.9
2017-Nov-11 18:00N 37°42' E 023°45'4 7.2
2017-Nov-11 17:30N 37°40' E 023°48'12 7.3
2017-Nov-11 15:47N 37°38' E 024°04'2 7.2
2017-Nov-11 15:27N 37°38' E 024°07'9 7.3
2017-Nov-11 14:15N 37°44' E 024°16'  

Dump ship's entire track history